createdAt,value
2019-04-02T00:00:59.658Z,18.80
2019-04-02T00:03:28.291Z,17.80
2019-04-02T00:05:56.856Z,17.50
2019-04-02T00:08:25.349Z,17.00
2019-04-02T00:10:54.453Z,17.00
2019-04-02T00:13:23.070Z,16.80
2019-04-02T00:15:51.622Z,17.00
2019-04-02T00:18:20.111Z,17.30
2019-04-02T00:20:48.608Z,17.00
2019-04-02T00:23:17.032Z,17.10
2019-04-02T00:25:45.591Z,17.30
2019-04-02T00:28:14.477Z,17.00
2019-04-02T00:30:43.414Z,16.80
2019-04-02T00:33:13.074Z,17.20
2019-04-02T00:35:41.627Z,17.30
2019-04-02T00:38:10.122Z,17.50
2019-04-02T00:40:39.859Z,17.00
2019-04-02T00:43:08.522Z,17.10
2019-04-02T00:45:37.009Z,17.20
2019-04-02T00:48:05.500Z,16.90
2019-04-02T00:50:33.992Z,16.70
2019-04-02T00:53:02.570Z,16.60
2019-04-02T00:55:31.095Z,16.60
2019-04-02T00:57:59.590Z,16.60
2019-04-02T01:00:28.138Z,16.70
2019-04-02T01:02:56.756Z,16.40
2019-04-02T01:05:25.330Z,16.90
2019-04-02T01:07:53.814Z,17.00
2019-04-02T01:10:23.311Z,17.40
2019-04-02T01:12:52.238Z,16.90
2019-04-02T01:15:20.866Z,16.60
2019-04-02T01:17:49.413Z,16.60
2019-04-02T01:20:17.910Z,16.20
2019-04-02T01:22:46.404Z,16.50
2019-04-02T01:25:14.874Z,16.40
2019-04-02T01:27:43.365Z,17.10
2019-04-02T01:30:11.850Z,17.10
2019-04-02T01:32:42.026Z,17.20
2019-04-02T01:35:10.540Z,17.20
2019-04-02T01:37:38.959Z,17.20
2019-04-02T01:40:07.579Z,16.90
2019-04-02T01:42:36.113Z,16.90
2019-04-02T01:45:06.762Z,16.50
2019-04-02T01:47:35.541Z,16.70
2019-04-02T01:50:06.013Z,16.70
2019-04-02T01:52:34.494Z,16.60
2019-04-02T01:55:03.414Z,21.30
2019-04-02T01:57:31.906Z,16.50
2019-04-02T02:00:00.432Z,20.00
2019-04-02T02:02:28.977Z,20.00
2019-04-02T02:04:57.458Z,23.70
2019-04-02T02:07:25.970Z,23.50
2019-04-02T02:09:54.518Z,23.30
2019-04-02T02:12:23.013Z,22.80
2019-04-02T02:14:51.489Z,17.30
2019-04-02T02:19:48.293Z,22.90
2019-04-02T02:22:17.194Z,23.50
2019-04-02T02:27:13.922Z,21.30
2019-04-02T02:29:42.346Z,17.80
2019-04-02T02:32:10.826Z,17.60
2019-04-02T02:34:40.408Z,22.70
2019-04-02T02:37:10.961Z,18.40
2019-04-02T02:39:40.853Z,20.80
2019-04-02T02:42:13.000Z,17.40
2019-04-02T02:44:43.183Z,17.40
2019-04-02T02:47:11.983Z,21.90
2019-04-02T02:49:40.468Z,24.10
2019-04-02T02:54:37.208Z,23.00
2019-04-02T02:57:05.684Z,19.80
2019-04-02T02:59:34.247Z,24.00
2019-04-02T03:02:02.721Z,23.30
2019-04-02T03:04:31.230Z,23.10
2019-04-02T03:07:02.526Z,23.40
2019-04-02T03:09:29.991Z,23.40
2019-04-02T03:11:58.546Z,24.00
2019-04-02T03:14:27.207Z,19.60
2019-04-02T03:16:55.815Z,17.70
2019-04-02T03:19:24.306Z,17.90
2019-04-02T03:21:52.806Z,18.00
2019-04-02T03:24:21.344Z,18.10
2019-04-02T03:26:51.682Z,18.30
2019-04-02T03:29:19.969Z,18.40
2019-04-02T03:31:48.535Z,18.70
2019-04-02T03:34:17.015Z,18.70
2019-04-02T03:36:46.467Z,18.10
2019-04-02T03:39:15.152Z,18.30
2019-04-02T03:41:43.685Z,18.20
2019-04-02T03:44:13.303Z,22.60
2019-04-02T03:46:43.650Z,18.20
2019-04-02T03:49:14.115Z,18.20
2019-04-02T03:51:42.665Z,18.50
2019-04-02T03:54:11.282Z,23.10
2019-04-02T03:56:39.768Z,18.50
2019-04-02T03:59:08.259Z,21.20
2019-04-02T04:01:36.819Z,23.40
2019-04-02T04:06:34.242Z,23.60
2019-04-02T04:09:05.244Z,23.00
2019-04-02T04:11:33.611Z,23.00
2019-04-02T04:14:02.099Z,23.40
2019-04-02T04:16:30.665Z,19.40
2019-04-02T04:19:00.677Z,17.60
2019-04-02T04:23:57.498Z,22.10
2019-04-02T04:26:26.052Z,17.50
2019-04-02T04:28:54.629Z,17.70
2019-04-02T04:31:23.184Z,17.70
2019-04-02T04:33:51.741Z,17.90
2019-04-02T04:36:20.267Z,23.70
2019-04-02T04:43:45.375Z,21.80
2019-04-02T04:46:13.979Z,25.90
2019-04-02T04:48:42.569Z,25.20
2019-04-02T04:56:07.540Z,25.10
2019-04-02T04:58:36.118Z,20.20
2019-04-02T05:01:04.657Z,24.20
2019-04-02T05:08:48.423Z,19.00
2019-04-02T05:11:17.333Z,18.00
2019-04-02T05:13:46.859Z,25.60
2019-04-02T05:16:15.331Z,18.30
2019-04-02T05:18:45.534Z,24.30
2019-04-02T05:21:14.344Z,24.40
2019-04-02T05:23:42.875Z,26.10
2019-04-02T05:26:11.359Z,27.80
2019-04-02T05:31:08.142Z,25.00
2019-04-02T05:33:36.639Z,17.70
2019-04-02T05:36:05.273Z,17.30
2019-04-02T05:38:34.875Z,24.10
2019-04-02T05:41:03.513Z,24.00
2019-04-02T05:43:32.049Z,17.40
2019-04-02T05:46:00.612Z,18.00
2019-04-02T05:48:29.166Z,17.60
2019-04-02T05:51:00.578Z,17.10
2019-04-02T05:53:30.846Z,16.90
2019-04-02T05:55:59.420Z,16.60
2019-04-02T05:58:27.974Z,16.20
2019-04-02T06:00:56.618Z,16.60
2019-04-02T06:03:25.174Z,16.50
2019-04-02T06:05:53.732Z,16.30
2019-04-02T06:08:22.358Z,16.60
2019-04-02T06:10:50.846Z,16.70
2019-04-02T06:13:19.474Z,16.80
2019-04-02T06:15:47.878Z,16.10
2019-04-02T06:18:16.516Z,16.10
2019-04-02T06:20:45.209Z,16.40
2019-04-02T06:23:15.207Z,16.40
2019-04-02T06:25:43.847Z,16.10
2019-04-02T06:28:12.465Z,15.90
2019-04-02T06:30:41.078Z,16.40
2019-04-02T06:33:09.710Z,16.40
2019-04-02T06:35:38.407Z,16.10
2019-04-02T06:38:06.903Z,15.60
2019-04-02T06:40:35.399Z,15.00
2019-04-02T06:43:03.998Z,15.40
2019-04-02T06:45:34.145Z,15.60
2019-04-02T06:48:19.031Z,15.50
2019-04-02T06:50:49.233Z,15.60
2019-04-02T06:53:17.805Z,15.70
2019-04-02T06:55:46.428Z,15.60
2019-04-02T06:58:14.931Z,15.80
2019-04-02T07:00:43.576Z,15.70
2019-04-02T07:03:12.132Z,15.50
2019-04-02T07:05:40.613Z,15.50
2019-04-02T07:08:09.193Z,45.50
2019-04-02T07:10:43.669Z,15.20
2019-04-02T07:13:08.022Z,16.00
2019-04-02T07:15:37.864Z,15.80
2019-04-02T07:18:06.278Z,15.60
2019-04-02T07:20:35.048Z,15.20
2019-04-02T07:23:03.980Z,15.00
2019-04-02T07:25:32.688Z,15.30
2019-04-02T07:28:01.231Z,15.00
2019-04-02T07:30:29.740Z,15.30
2019-04-02T07:32:59.573Z,15.00
2019-04-02T07:35:30.011Z,15.20
2019-04-02T07:37:58.238Z,15.00
2019-04-02T07:40:26.791Z,15.80
2019-04-02T07:42:56.421Z,15.20
2019-04-02T07:45:24.925Z,15.20
2019-04-02T07:47:53.479Z,15.00
2019-04-02T07:50:22.030Z,14.40
2019-04-02T07:52:50.880Z,15.10
2019-04-02T07:55:19.488Z,15.20
2019-04-02T08:00:16.255Z,14.30
2019-04-02T08:02:44.805Z,15.00
2019-04-02T08:05:13.367Z,14.70
2019-04-02T08:07:41.861Z,15.00
2019-04-02T08:10:10.413Z,14.80
2019-04-02T08:12:39.058Z,14.60
2019-04-02T08:15:07.536Z,14.40
2019-04-02T08:17:36.129Z,14.30
2019-04-02T08:20:05.476Z,14.10
2019-04-02T08:23:52.005Z,32.40
2019-04-02T08:31:27.173Z,15.20
2019-04-02T08:33:55.808Z,14.50
2019-04-02T08:36:24.373Z,14.40
2019-04-02T08:41:21.317Z,13.80
2019-04-02T08:43:50.691Z,14.20
2019-04-02T08:46:19.335Z,14.50
2019-04-02T08:48:47.809Z,14.40
2019-04-02T08:51:16.361Z,14.10
2019-04-02T08:53:44.909Z,13.90
2019-04-02T08:56:13.458Z,14.40
2019-04-02T08:58:51.234Z,13.40
2019-04-02T09:01:13.821Z,14.40
2019-04-02T09:03:42.493Z,13.80
2019-04-02T09:06:11.813Z,13.60
2019-04-02T09:08:40.854Z,13.60
2019-04-02T09:11:09.331Z,13.40
2019-04-02T09:13:37.748Z,13.50
2019-04-02T09:16:06.391Z,13.50
2019-04-02T09:18:34.964Z,13.40
2019-04-02T09:21:03.550Z,13.00
2019-04-02T09:23:32.188Z,12.50
2019-04-02T09:26:03.958Z,12.90
2019-04-02T09:28:30.887Z,13.20
2019-04-02T09:30:59.431Z,13.70
2019-04-02T09:33:27.983Z,12.80
2019-04-02T09:35:59.219Z,13.10
2019-04-02T09:38:26.594Z,13.10
2019-04-02T09:40:55.075Z,12.40
2019-04-02T09:43:23.565Z,13.20
2019-04-02T09:45:53.170Z,13.40
2019-04-02T09:48:21.778Z,40.00
2019-04-02T09:50:50.305Z,31.50
2019-04-02T09:53:18.762Z,30.30
2019-04-02T09:55:48.949Z,19.90
2019-04-02T10:00:45.613Z,29.90
2019-04-02T10:03:15.883Z,32.10
2019-04-02T10:05:44.509Z,32.50
2019-04-02T10:08:13.201Z,22.70
2019-04-02T10:10:41.953Z,32.20
2019-04-02T10:15:38.685Z,27.60
2019-04-02T10:18:07.109Z,19.50
2019-04-02T10:23:03.990Z,19.80
2019-04-02T10:30:29.937Z,14.00
2019-04-02T10:32:58.937Z,14.80
2019-04-02T10:38:02.084Z,14.60
2019-04-02T10:45:25.358Z,19.00
2019-04-02T10:47:53.821Z,36.30
2019-04-02T10:52:50.566Z,27.90
2019-04-02T10:55:19.061Z,30.80
2019-04-02T10:57:47.691Z,23.30
2019-04-02T11:00:17.387Z,17.60
2019-04-02T11:12:39.162Z,19.80
2019-04-02T11:15:08.083Z,13.40
2019-04-02T11:17:36.639Z,13.70
2019-04-02T11:20:07.829Z,15.30
2019-04-02T11:22:36.452Z,21.00
2019-04-02T11:25:08.375Z,17.30
2019-04-02T11:27:37.010Z,15.20
2019-04-02T11:30:06.714Z,16.90
2019-04-02T11:32:35.269Z,22.80
2019-04-02T11:35:06.608Z,14.20
2019-04-02T11:37:35.158Z,14.30
2019-04-02T11:40:06.085Z,14.30
2019-04-02T11:42:36.871Z,14.00
2019-04-02T11:45:06.685Z,14.30
2019-04-02T11:47:35.271Z,12.90
2019-04-02T11:50:06.721Z,13.30
2019-04-02T11:55:04.223Z,17.00
2019-04-02T11:57:32.816Z,25.60
2019-04-02T12:00:01.559Z,13.60
2019-04-02T12:07:27.247Z,16.20
2019-04-02T12:09:56.865Z,23.80
2019-04-02T12:12:26.081Z,13.40
2019-04-02T12:14:54.693Z,15.30
2019-04-02T12:19:51.520Z,19.70
2019-04-02T12:22:20.081Z,20.70
2019-04-02T12:27:18.993Z,21.40
2019-04-02T12:29:49.389Z,13.50
2019-04-02T12:32:17.821Z,14.30
2019-04-02T12:39:43.341Z,28.90
2019-04-02T12:42:11.962Z,13.50
2019-04-02T12:44:40.452Z,18.00
2019-04-02T12:47:08.958Z,15.10
2019-04-02T12:54:34.932Z,13.20
2019-04-02T12:57:06.449Z,13.80
2019-04-02T12:59:33.910Z,13.60
2019-04-02T13:02:02.414Z,17.90
2019-04-02T13:04:30.910Z,18.40
2019-04-02T13:06:59.612Z,13.00
2019-04-02T13:09:28.166Z,13.30
2019-04-02T13:11:56.827Z,13.20
2019-04-02T13:14:25.413Z,13.30
2019-04-02T13:16:54.048Z,13.50
2019-04-02T13:19:22.480Z,13.30
2019-04-02T13:21:51.029Z,13.30
2019-04-02T13:24:22.214Z,13.00
2019-04-02T13:26:50.387Z,12.50
2019-04-02T13:29:19.010Z,12.50
2019-04-02T13:31:47.626Z,12.90
2019-04-02T13:34:16.151Z,13.30
2019-04-02T13:39:13.576Z,12.70
2019-04-02T13:41:42.581Z,15.80
2019-04-02T13:44:11.183Z,16.70
2019-04-02T13:46:39.763Z,13.30
2019-04-02T13:49:08.636Z,13.50
2019-04-02T13:51:37.209Z,13.40
2019-04-02T13:54:06.856Z,14.60
2019-04-02T13:56:37.267Z,13.60
2019-04-02T13:59:05.697Z,13.50
2019-04-02T14:01:35.844Z,13.00
2019-04-02T14:04:04.333Z,12.70
2019-04-02T14:06:32.961Z,13.10
2019-04-02T14:11:30.840Z,13.00
2019-04-02T14:13:59.394Z,13.20
2019-04-02T14:16:27.894Z,12.80
2019-04-02T14:18:58.377Z,13.00
2019-04-02T14:21:26.675Z,17.30
2019-04-02T14:23:55.153Z,13.20
2019-04-02T14:26:23.823Z,13.20
2019-04-02T14:28:52.304Z,13.20
2019-04-02T14:31:21.235Z,13.40
2019-04-02T14:33:49.914Z,13.40
2019-04-02T14:36:18.638Z,13.50
2019-04-02T14:38:47.158Z,13.80
2019-04-02T14:41:15.617Z,12.90
2019-04-02T14:43:44.242Z,28.80
2019-04-02T14:46:12.822Z,22.20
2019-04-02T14:51:10.251Z,27.20
2019-04-02T14:53:38.940Z,37.40
2019-04-02T14:56:11.460Z,24.90
2019-04-02T14:58:40.075Z,16.30
2019-04-02T15:01:08.705Z,14.40
2019-04-02T15:03:37.277Z,13.40
2019-04-02T15:06:05.945Z,13.30
2019-04-02T15:08:34.560Z,12.90
2019-04-02T15:11:03.627Z,13.40
2019-04-02T15:13:32.254Z,14.00
2019-04-02T15:16:00.891Z,13.50
2019-04-02T15:18:29.790Z,13.40
2019-04-02T15:20:59.172Z,13.60
2019-04-02T15:23:27.763Z,13.60
2019-04-02T15:25:56.273Z,13.50
2019-04-02T15:28:24.881Z,13.70
2019-04-02T15:30:55.482Z,14.20
2019-04-02T15:33:23.718Z,14.10
2019-04-02T15:35:52.222Z,30.50
2019-04-02T15:38:20.727Z,35.50
2019-04-02T15:43:19.234Z,29.10
2019-04-02T15:45:47.806Z,13.90
2019-04-02T15:48:16.227Z,14.20
2019-04-02T15:50:47.511Z,14.60
2019-04-02T15:53:15.055Z,14.70
2019-04-02T15:55:43.649Z,14.30
2019-04-02T15:58:13.306Z,14.10
2019-04-02T16:00:41.802Z,14.10
2019-04-02T16:03:12.614Z,14.40
2019-04-02T16:05:42.246Z,14.20
2019-04-02T16:08:10.753Z,14.20
2019-04-02T16:10:39.315Z,14.00
2019-04-02T16:13:08.019Z,13.60
2019-04-02T16:15:36.657Z,13.90
2019-04-02T16:18:05.287Z,13.80
2019-04-02T16:20:34.640Z,27.80
2019-04-02T16:25:34.734Z,24.20
2019-04-02T16:28:04.072Z,32.20
2019-04-02T16:30:32.728Z,27.80
2019-04-02T16:35:29.696Z,23.10
2019-04-02T16:37:58.339Z,22.30
2019-04-02T16:40:26.900Z,27.20
2019-04-02T16:42:55.721Z,21.40
2019-04-02T16:47:53.739Z,14.20
2019-04-02T16:50:22.782Z,29.10
2019-04-02T16:52:52.451Z,16.30
2019-04-02T16:55:21.480Z,21.00
2019-04-02T17:00:19.486Z,22.80
2019-04-02T17:05:16.370Z,15.10
2019-04-02T17:07:44.867Z,32.80
2019-04-02T17:12:41.754Z,27.60
2019-04-02T17:15:10.355Z,15.30
2019-04-02T17:17:39.101Z,18.40
2019-04-02T17:20:10.417Z,15.30
2019-04-02T17:22:39.612Z,17.10
2019-04-02T17:25:08.217Z,15.70
2019-04-02T17:27:36.916Z,15.50
2019-04-02T17:30:06.269Z,16.20
2019-04-02T17:32:36.969Z,15.70
2019-04-02T17:35:08.113Z,15.60
2019-04-02T17:37:37.110Z,15.50
2019-04-02T17:40:07.806Z,15.60
2019-04-02T17:42:36.520Z,16.80
2019-04-02T17:45:08.042Z,16.70
2019-04-02T17:47:36.627Z,15.60
2019-04-02T17:50:07.156Z,15.50
2019-04-02T17:52:35.807Z,15.50
2019-04-02T17:55:05.797Z,15.50
2019-04-02T17:57:34.472Z,15.40
2019-04-02T18:00:05.220Z,16.60
2019-04-02T18:02:34.827Z,15.60
2019-04-02T18:05:07.525Z,15.10
2019-04-02T18:10:05.172Z,15.50
2019-04-02T18:15:03.963Z,47.60
2019-04-02T18:17:32.339Z,45.20
2019-04-02T18:22:29.248Z,43.10
2019-04-02T18:24:57.876Z,53.80
2019-04-02T18:27:26.512Z,31.40
2019-04-02T18:29:55.152Z,34.30
2019-04-02T18:32:24.032Z,44.60
2019-04-02T18:34:52.736Z,41.50
2019-04-02T18:37:21.228Z,40.10
2019-04-02T18:39:49.897Z,41.80
2019-04-02T18:42:18.548Z,42.20
2019-04-02T18:44:47.238Z,41.20
2019-04-02T18:49:45.407Z,39.20
2019-04-02T18:52:13.959Z,38.90
2019-04-02T18:57:11.104Z,39.40
2019-04-02T18:59:39.646Z,38.50
2019-04-02T19:02:11.046Z,38.30
2019-04-02T19:04:39.640Z,39.20
2019-04-02T19:07:08.203Z,39.20
2019-04-02T19:09:36.926Z,38.40
2019-04-02T19:12:12.920Z,36.90
2019-04-02T19:14:35.748Z,28.40
2019-04-02T19:17:04.394Z,21.90
2019-04-02T19:19:33.013Z,25.00
2019-04-02T19:22:01.613Z,24.30
2019-04-02T19:26:58.563Z,23.20
2019-04-02T19:29:30.018Z,21.80
2019-04-02T19:31:57.458Z,21.70
2019-04-02T19:34:26.464Z,20.70
2019-04-02T19:36:55.117Z,21.50
2019-04-02T19:39:23.765Z,21.10
2019-04-02T19:41:53.554Z,21.30
2019-04-02T19:44:23.567Z,19.90
2019-04-02T19:51:49.050Z,18.80
2019-04-02T19:59:22.741Z,19.10
2019-04-02T20:06:45.319Z,22.40
2019-04-02T20:09:13.975Z,21.90
2019-04-02T20:11:45.356Z,22.20
2019-04-02T20:14:12.840Z,18.70
2019-04-02T20:16:41.451Z,20.70
2019-04-02T20:24:08.496Z,21.40
2019-04-02T20:26:37.059Z,21.80
2019-04-02T20:29:05.613Z,21.60
2019-04-02T20:31:34.114Z,20.90
2019-04-02T20:39:00.308Z,18.80
2019-04-02T20:41:29.293Z,20.30
2019-04-02T20:43:59.200Z,19.80
2019-04-02T20:46:27.919Z,20.30
2019-04-02T20:48:56.615Z,20.00
2019-04-02T20:51:25.096Z,20.00
2019-04-02T20:53:55.671Z,19.70
2019-04-02T20:58:52.722Z,19.20
2019-04-02T21:01:23.071Z,19.20
2019-04-02T21:06:20.263Z,19.00
2019-04-02T21:08:48.955Z,18.90
2019-04-02T21:11:17.655Z,19.10
2019-04-02T21:13:48.011Z,19.70
2019-04-02T21:16:16.622Z,18.50
2019-04-02T21:18:45.428Z,19.80
2019-04-02T21:21:15.607Z,19.20
2019-04-02T21:23:44.319Z,19.30
2019-04-02T21:26:14.049Z,19.90
2019-04-02T21:31:11.070Z,19.40
2019-04-02T21:33:39.721Z,19.30
2019-04-02T21:36:08.347Z,19.00
2019-04-02T21:38:36.922Z,19.00
2019-04-02T21:43:35.106Z,19.20
2019-04-02T21:46:05.159Z,18.80
2019-04-02T21:48:36.977Z,19.50
2019-04-02T21:51:07.034Z,19.20
2019-04-02T21:56:03.288Z,19.50
2019-04-02T21:58:31.855Z,19.00
2019-04-02T22:01:00.417Z,19.10
2019-04-02T22:05:57.359Z,18.50
2019-04-02T22:08:25.984Z,18.20
2019-04-02T22:10:55.496Z,18.40
2019-04-02T22:13:24.076Z,18.10
2019-04-02T22:15:52.568Z,18.00
2019-04-02T22:18:21.286Z,18.50
2019-04-02T22:20:50.279Z,18.80
2019-04-02T22:23:18.774Z,19.20
2019-04-02T22:25:47.322Z,20.60
2019-04-02T22:28:16.017Z,19.90
2019-04-02T22:30:47.148Z,19.60
2019-04-02T22:33:17.744Z,19.90
2019-04-02T22:35:45.294Z,19.80
2019-04-02T22:38:13.910Z,19.60
2019-04-02T22:43:10.872Z,19.70
2019-04-02T22:45:39.826Z,18.80
2019-04-02T22:48:08.317Z,18.90
2019-04-02T22:50:36.881Z,19.60
2019-04-02T22:53:05.450Z,19.60
2019-04-02T22:55:36.948Z,19.40
2019-04-02T22:58:05.443Z,19.60
2019-04-02T23:03:03.039Z,19.50
2019-04-02T23:05:32.826Z,19.70
2019-04-02T23:08:03.295Z,20.40
2019-04-02T23:10:33.577Z,20.00
2019-04-02T23:13:03.492Z,19.20
2019-04-02T23:15:32.347Z,19.00
2019-04-02T23:18:00.809Z,18.80
2019-04-02T23:20:29.300Z,19.20
2019-04-02T23:22:57.729Z,18.90
2019-04-02T23:25:26.278Z,19.20
2019-04-02T23:27:54.840Z,18.80
2019-04-02T23:30:25.226Z,18.60
2019-04-02T23:32:54.791Z,18.90
2019-04-02T23:35:23.961Z,19.10
2019-04-02T23:37:52.481Z,19.10
2019-04-02T23:40:23.171Z,19.50
2019-04-02T23:42:51.646Z,19.20
2019-04-02T23:45:20.143Z,18.70
2019-04-02T23:47:48.685Z,18.50
2019-04-02T23:50:17.184Z,18.70
2019-04-02T23:52:45.669Z,18.40
2019-04-02T23:55:14.217Z,17.60
2019-04-02T23:57:42.716Z,18.60
